sensor_id;sensor_type;location;lat;lon;timestamp;pressure;altitude;pressure_sealevel;temperature;humidity
64243;BME280;50573;51.512;5.386;2022-09-09T00:02:12;100735.66;;;12.87;100.00
64243;BME280;50573;51.512;5.386;2022-09-09T00:12:27;100724.50;;;12.81;100.00
64243;BME280;50573;51.512;5.386;2022-09-09T00:22:36;100724.63;;;12.74;100.00
64243;BME280;50573;51.512;5.386;2022-09-09T00:32:41;100714.38;;;12.66;100.00
64243;BME280;50573;51.512;5.386;2022-09-09T00:42:45;100709.28;;;12.61;100.00
64243;BME280;50573;51.512;5.386;2022-09-09T00:52:56;100697.22;;;12.59;100.00
64243;BME280;50573;51.512;5.386;2022-09-09T01:03:20;100701.59;;;12.54;100.00
64243;BME280;50573;51.512;5.386;2022-09-09T01:13:27;100695.59;;;12.52;100.00
64243;BME280;50573;51.512;5.386;2022-09-09T01:23:48;100687.84;;;12.50;100.00
64243;BME280;50573;51.512;5.386;2022-09-09T01:34:09;100684.44;;;12.48;100.00
64243;BME280;50573;51.512;5.386;2022-09-09T01:44:14;100685.31;;;12.47;100.00
64243;BME280;50573;51.512;5.386;2022-09-09T01:54:23;100681.00;;;12.44;100.00
64243;BME280;50573;51.512;5.386;2022-09-09T02:04:36;100677.63;;;12.41;100.00
64243;BME280;50573;51.512;5.386;2022-09-09T02:14:52;100663.84;;;12.37;100.00
64243;BME280;50573;51.512;5.386;2022-09-09T02:25:00;100668.22;;;12.35;100.00
64243;BME280;50573;51.512;5.386;2022-09-09T02:35:09;100668.19;;;12.37;100.00
64243;BME280;50573;51.512;5.386;2022-09-09T02:45:17;100662.13;;;12.38;100.00
64243;BME280;50573;51.512;5.386;2022-09-09T02:55:31;100663.03;;;12.35;100.00
64243;BME280;50573;51.512;5.386;2022-09-09T03:05:40;100676.78;;;12.39;100.00
64243;BME280;50573;51.512;5.386;2022-09-09T03:15:47;100672.53;;;12.36;100.00
64243;BME280;50573;51.512;5.386;2022-09-09T03:25:54;100700.06;;;12.42;100.00
64243;BME280;50573;51.512;5.386;2022-09-09T03:36:07;100698.22;;;12.48;100.00
64243;BME280;50573;51.512;5.386;2022-09-09T03:46:12;100683.50;;;12.51;100.00
64243;BME280;50573;51.512;5.386;2022-09-09T03:56:17;100685.22;;;12.52;100.00
64243;BME280;50573;51.512;5.386;2022-09-09T04:06:20;100678.25;;;12.54;100.00
64243;BME280;50573;51.512;5.386;2022-09-09T04:16:24;100678.25;;;12.54;100.00
64243;BME280;50573;51.512;5.386;2022-09-09T04:26:28;100686.72;;;12.65;100.00
64243;BME280;50573;51.512;5.386;2022-09-09T04:36:32;100671.88;;;12.75;100.00
64243;BME280;50573;51.512;5.386;2022-09-09T04:46:38;100669.19;;;12.79;100.00
64243;BME280;50573;51.512;5.386;2022-09-09T04:56:45;100660.50;;;12.80;100.00
64243;BME280;50573;51.512;5.386;2022-09-09T05:06:48;100669.00;;;12.90;100.00
64243;BME280;50573;51.512;5.386;2022-09-09T05:16:53;100655.97;;;12.93;100.00
64243;BME280;50573;51.512;5.386;2022-09-09T05:26:58;100640.28;;;12.99;100.00
64243;BME280;50573;51.512;5.386;2022-09-09T05:37:05;100634.06;;;13.08;100.00
64243;BME280;50573;51.512;5.386;2022-09-09T05:47:10;100631.16;;;13.25;100.00
64243;BME280;50573;51.512;5.386;2022-09-09T05:57:15;100636.97;;;13.38;100.00
64243;BME280;50573;51.512;5.386;2022-09-09T06:07:18;100622.81;;;13.51;100.00
64243;BME280;50573;51.512;5.386;2022-09-09T06:17:23;100611.94;;;13.75;100.00
64243;BME280;50573;51.512;5.386;2022-09-09T06:27:27;100602.97;;;13.88;100.00
64243;BME280;50573;51.512;5.386;2022-09-09T06:37:31;100596.81;;;13.92;100.00
64243;BME280;50573;51.512;5.386;2022-09-09T06:47:35;100578.34;;;14.04;100.00
64243;BME280;50573;51.512;5.386;2022-09-09T06:57:41;100564.97;;;14.20;100.00
64243;BME280;50573;51.512;5.386;2022-09-09T07:07:50;100564.25;;;14.48;100.00
64243;BME280;50573;51.512;5.386;2022-09-09T07:17:55;100549.19;;;14.92;100.00
64243;BME280;50573;51.512;5.386;2022-09-09T07:28:03;100542.81;;;15.32;100.00
64243;BME280;50573;51.512;5.386;2022-09-09T07:38:08;100552.25;;;15.36;100.00
64243;BME280;50573;51.512;5.386;2022-09-09T07:48:13;100545.72;;;15.51;100.00
64243;BME280;50573;51.512;5.386;2022-09-09T07:58:18;100542.34;;;15.76;100.00
64243;BME280;50573;51.512;5.386;2022-09-09T08:08:22;100547.44;;;16.07;100.00
64243;BME280;50573;51.512;5.386;2022-09-09T08:18:27;100547.00;;;16.46;99.08
64243;BME280;50573;51.512;5.386;2022-09-09T08:28:31;100546.16;;;16.69;96.92
64243;BME280;50573;51.512;5.386;2022-09-09T08:38:36;100551.91;;;16.79;95.13
64243;BME280;50573;51.512;5.386;2022-09-09T08:48:48;100562.25;;;16.57;95.40
64243;BME280;50573;51.512;5.386;2022-09-09T08:58:56;100565.91;;;16.77;93.30
64243;BME280;50573;51.512;5.386;2022-09-09T09:09:28;100574.41;;;16.83;90.83
64243;BME280;50573;51.512;5.386;2022-09-09T09:19:38;100579.34;;;16.91;91.08
64243;BME280;50573;51.512;5.386;2022-09-09T09:29:46;100589.25;;;16.56;93.17
64243;BME280;50573;51.512;5.386;2022-09-09T09:40:15;100584.19;;;17.02;92.50
64243;BME280;50573;51.512;5.386;2022-09-09T09:50:25;100574.75;;;16.47;96.24
64243;BME280;50573;51.512;5.386;2022-09-09T10:00:47;100587.09;;;16.17;100.00
64243;BME280;50573;51.512;5.386;2022-09-09T10:11:05;100587.09;;;15.90;100.00
64243;BME280;50573;51.512;5.386;2022-09-09T10:21:24;100595.63;;;15.95;100.00
64243;BME280;50573;51.512;5.386;2022-09-09T10:31:40;100599.97;;;15.67;100.00
64243;BME280;50573;51.512;5.386;2022-09-09T10:41:57;100595.69;;;15.64;100.00
64243;BME280;50573;51.512;5.386;2022-09-09T10:52:10;100595.63;;;15.95;100.00
64243;BME280;50573;51.512;5.386;2022-09-09T11:02:24;100595.13;;;16.11;100.00
64243;BME280;50573;51.512;5.386;2022-09-09T11:12:30;100599.25;;;16.18;100.00
64243;BME280;50573;51.512;5.386;2022-09-09T11:22:39;100584.91;;;16.31;100.00
64243;BME280;50573;51.512;5.386;2022-09-09T11:43:42;100600.63;;;16.02;100.00
64243;BME280;50573;51.512;5.386;2022-09-09T11:53:49;100592.22;;;16.20;100.00
64243;BME280;50573;51.512;5.386;2022-09-09T12:04:05;100582.97;;;16.62;100.00
64243;BME280;50573;51.512;5.386;2022-09-09T12:14:20;100579.31;;;17.16;100.00
64243;BME280;50573;51.512;5.386;2022-09-09T12:24:32;100582.53;;;17.23;98.20
64243;BME280;50573;51.512;5.386;2022-09-09T12:34:41;100564.38;;;17.42;95.22
64243;BME280;50573;51.512;5.386;2022-09-09T12:44:55;100567.53;;;17.28;96.33
64243;BME280;50573;51.512;5.386;2022-09-09T12:55:02;100563.50;;;16.47;100.00
64243;BME280;50573;51.512;5.386;2022-09-09T13:05:14;100572.81;;;16.02;100.00
64243;BME280;50573;51.512;5.386;2022-09-09T13:15:28;100561.19;;;17.12;100.00
64243;BME280;50573;51.512;5.386;2022-09-09T13:25:34;100550.06;;;17.74;100.00
64243;BME280;50573;51.512;5.386;2022-09-09T13:35:49;100549.66;;;17.84;100.00
64243;BME280;50573;51.512;5.386;2022-09-09T13:45:57;100546.03;;;17.88;99.94
64243;BME280;50573;51.512;5.386;2022-09-09T13:56:09;100545.69;;;17.75;100.00
64243;BME280;50573;51.512;5.386;2022-09-09T14:06:17;100532.78;;;17.93;97.84
64243;BME280;50573;51.512;5.386;2022-09-09T14:16:23;100535.75;;;18.05;96.36
64243;BME280;50573;51.512;5.386;2022-09-09T14:26:30;100531.75;;;18.58;94.43
64243;BME280;50573;51.512;5.386;2022-09-09T14:36:34;100530.34;;;19.10;89.83
64243;BME280;50573;51.512;5.386;2022-09-09T14:46:49;100517.31;;;18.89;88.83
64243;BME280;50573;51.512;5.386;2022-09-09T14:56:53;100520.72;;;18.71;86.29
64243;BME280;50573;51.512;5.386;2022-09-09T15:06:58;100509.25;;;19.49;83.02
64243;BME280;50573;51.512;5.386;2022-09-09T15:17:01;100553.66;;;18.76;82.48
64243;BME280;50573;51.512;5.386;2022-09-09T15:27:06;100587.41;;;16.35;100.00
64243;BME280;50573;51.512;5.386;2022-09-09T15:37:09;100586.09;;;15.36;100.00
64243;BME280;50573;51.512;5.386;2022-09-09T15:47:16;100577.03;;;15.20;100.00
64243;BME280;50573;51.512;5.386;2022-09-09T15:57:19;100568.75;;;15.37;100.00
64243;BME280;50573;51.512;5.386;2022-09-09T16:07:24;100592.28;;;15.34;100.00
64243;BME280;50573;51.512;5.386;2022-09-09T16:17:26;100615.81;;;15.29;100.00
64243;BME280;50573;51.512;5.386;2022-09-09T16:27:42;100624.41;;;15.03;100.00
64243;BME280;50573;51.512;5.386;2022-09-09T16:37:45;100628.09;;;14.94;100.00
64243;BME280;50573;51.512;5.386;2022-09-09T16:47:56;100655.19;;;14.52;100.00
64243;BME280;50573;51.512;5.386;2022-09-09T16:58:07;100647.16;;;14.26;100.00
64243;BME280;50573;51.512;5.386;2022-09-09T17:08:14;100639.59;;;14.15;100.00
64243;BME280;50573;51.512;5.386;2022-09-09T17:18:21;100637.22;;;14.05;100.00
64243;BME280;50573;51.512;5.386;2022-09-09T17:28:25;100640.72;;;14.04;100.00
64243;BME280;50573;51.512;5.386;2022-09-09T17:38:33;100654.31;;;14.16;100.00
64243;BME280;50573;51.512;5.386;2022-09-09T17:48:48;100658.44;;;14.25;100.00
64243;BME280;50573;51.512;5.386;2022-09-09T17:58:55;100675.88;;;14.19;100.00
64243;BME280;50573;51.512;5.386;2022-09-09T18:09:02;100689.94;;;14.11;100.00
64243;BME280;50573;51.512;5.386;2022-09-09T18:19:08;100693.63;;;14.02;100.00
64243;BME280;50573;51.512;5.386;2022-09-09T18:29:16;100715.38;;;13.98;100.00
64243;BME280;50573;51.512;5.386;2022-09-09T18:39:22;100778.59;;;13.98;100.00
64243;BME280;50573;51.512;5.386;2022-09-09T18:49:29;100798.34;;;14.07;100.00
64243;BME280;50573;51.512;5.386;2022-09-09T18:59:33;100817.31;;;14.11;100.00
64243;BME280;50573;51.512;5.386;2022-09-09T19:09:38;100816.53;;;14.07;100.00
64243;BME280;50573;51.512;5.386;2022-09-09T19:19:41;100827.84;;;14.04;100.00
64243;BME280;50573;51.512;5.386;2022-09-09T19:29:46;100837.31;;;14.07;100.00
64243;BME280;50573;51.512;5.386;2022-09-09T19:39:49;100841.69;;;14.05;100.00
64243;BME280;50573;51.512;5.386;2022-09-09T19:49:54;100849.66;;;13.96;100.00
64243;BME280;50573;51.512;5.386;2022-09-09T19:59:57;100858.28;;;13.99;100.00
64243;BME280;50573;51.512;5.386;2022-09-09T20:10:03;100859.06;;;14.03;100.00
64243;BME280;50573;51.512;5.386;2022-09-09T20:20:07;100872.16;;;13.97;100.00
64243;BME280;50573;51.512;5.386;2022-09-09T20:30:13;100866.13;;;13.96;100.00
64243;BME280;50573;51.512;5.386;2022-09-09T20:40:16;100871.28;;;13.98;100.00
64243;BME280;50573;51.512;5.386;2022-09-09T20:50:22;100865.91;;;14.07;100.00
64243;BME280;50573;51.512;5.386;2022-09-09T21:00:26;100855.47;;;14.09;100.00
64243;BME280;50573;51.512;5.386;2022-09-09T21:10:31;100861.63;;;14.04;100.00
64243;BME280;50573;51.512;5.386;2022-09-09T21:20:35;100856.59;;;13.95;100.00
64243;BME280;50573;51.512;5.386;2022-09-09T21:30:40;100854.13;;;13.89;100.00
64243;BME280;50573;51.512;5.386;2022-09-09T21:40:45;100840.34;;;13.84;100.00
64243;BME280;50573;51.512;5.386;2022-09-09T21:50:51;100837.06;;;13.76;100.00
64243;BME280;50573;51.512;5.386;2022-09-09T22:00:54;100849.31;;;13.69;100.00
64243;BME280;50573;51.512;5.386;2022-09-09T22:11:04;100852.88;;;13.62;100.00
64243;BME280;50573;51.512;5.386;2022-09-09T22:21:10;100860.84;;;13.52;100.00
64243;BME280;50573;51.512;5.386;2022-09-09T22:31:15;100866.19;;;13.45;100.00
64243;BME280;50573;51.512;5.386;2022-09-09T22:41:19;100849.00;;;13.38;100.00
64243;BME280;50573;51.512;5.386;2022-09-09T22:51:23;100859.50;;;13.30;100.00
64243;BME280;50573;51.512;5.386;2022-09-09T23:01:27;100861.28;;;13.25;100.00
64243;BME280;50573;51.512;5.386;2022-09-09T23:11:34;100866.41;;;13.29;100.00
64243;BME280;50573;51.512;5.386;2022-09-09T23:21:38;100864.75;;;13.25;100.00
64243;BME280;50573;51.512;5.386;2022-09-09T23:31:44;100884.81;;;13.14;100.00
64243;BME280;50573;51.512;5.386;2022-09-09T23:41:47;100884.78;;;13.17;100.00
64243;BME280;50573;51.512;5.386;2022-09-09T23:51:52;100888.97;;;13.26;100.00
